createdAt,value
2015-10-13T15:49:12.537Z,314
2015-10-13T15:49:25.884Z,333
2015-10-13T15:49:37.978Z,333
2015-10-13T15:49:50.134Z,333
2015-10-13T15:50:02.447Z,343
2015-10-13T15:50:14.587Z,343
2015-10-13T15:50:26.824Z,324
2015-10-13T15:50:38.870Z,324
2015-10-13T15:50:51.324Z,324
2015-10-13T15:51:03.589Z,336
2015-10-13T15:51:15.745Z,336
2015-10-13T15:51:28.419Z,336
2015-10-13T15:51:40.904Z,336
2015-10-13T15:51:53.451Z,316
2015-10-13T15:52:05.701Z,316
2015-10-13T15:52:18.326Z,327
2015-10-13T15:52:30.563Z,327
2015-10-13T15:52:43.329Z,327
2015-10-13T15:52:55.735Z,327
2015-10-13T15:53:08.641Z,308
2015-10-13T15:53:20.862Z,335
2015-10-13T15:53:33.065Z,335
2015-10-13T15:53:45.112Z,318
2015-10-13T15:53:57.831Z,318
2015-10-13T15:54:10.049Z,318
2015-10-13T15:54:22.474Z,318
2015-10-13T15:54:34.568Z,301
2015-10-13T15:54:46.959Z,301
2015-10-13T15:54:59.146Z,301
2015-10-13T15:55:12.818Z,326
2015-10-13T15:55:25.570Z,326
2015-10-13T15:55:38.273Z,326
2015-10-13T15:55:50.789Z,326
2015-10-13T15:56:02.929Z,326
2015-10-13T15:56:15.195Z,326
2015-10-13T15:56:28.089Z,326
2015-10-13T15:56:40.276Z,326
2015-10-13T15:56:52.495Z,326
2015-10-13T15:57:04.729Z,326
2015-10-13T15:57:18.620Z,326
2015-10-13T15:57:31.623Z,301
2015-10-13T15:57:44.170Z,326
2015-10-13T15:57:56.607Z,301
2015-10-13T15:58:09.170Z,326
2015-10-13T15:58:22.282Z,326
2015-10-13T15:58:34.407Z,318
2015-10-13T15:58:46.610Z,318
2015-10-13T15:58:58.610Z,318
2015-10-13T15:59:10.798Z,318
2015-10-13T15:59:23.050Z,318
2015-10-13T15:59:36.128Z,318
2015-10-13T15:59:48.237Z,318
2015-10-13T16:00:01.472Z,318
2015-10-13T16:00:14.503Z,335
2015-10-13T16:00:26.850Z,335
2015-10-13T16:00:40.146Z,318
2015-10-13T16:00:52.631Z,318
2015-10-13T16:01:04.725Z,318
2015-10-13T16:01:17.771Z,318
2015-10-13T16:01:29.946Z,318
2015-10-13T16:01:42.728Z,318
2015-10-13T16:01:54.915Z,318
2015-10-13T16:02:07.399Z,318
2015-10-13T16:02:19.493Z,343
2015-10-13T16:02:31.605Z,326
2015-10-13T16:02:43.651Z,326
2015-10-13T16:02:55.839Z,326
2015-10-13T16:03:08.026Z,309
2015-10-13T16:03:20.573Z,299
2015-10-13T16:03:33.233Z,316
2015-10-13T16:03:45.326Z,299
2015-10-13T16:03:57.467Z,299
2015-10-13T16:04:09.733Z,299
2015-10-13T16:04:21.861Z,299
2015-10-13T16:04:33.876Z,307
2015-10-13T16:04:46.173Z,307
2015-10-13T16:04:58.548Z,307
2015-10-13T16:05:10.689Z,307
2015-10-13T16:05:22.863Z,290
2015-10-13T16:05:34.847Z,290
2015-10-13T16:05:47.206Z,290
2015-10-13T16:05:59.894Z,290
2015-10-13T16:06:12.300Z,290
2015-10-13T16:06:25.131Z,290
2015-10-13T16:06:37.709Z,298
2015-10-13T16:06:49.819Z,298
2015-10-13T16:07:02.162Z,298
2015-10-13T16:07:14.928Z,298
2015-10-13T16:07:27.196Z,298
2015-10-13T16:07:39.461Z,298
2015-10-13T16:07:51.758Z,298
2015-10-13T16:08:04.555Z,298
2015-10-13T16:08:16.696Z,298
2015-10-13T16:08:29.403Z,281
2015-10-13T16:08:42.543Z,281
2015-10-13T16:08:54.809Z,281
2015-10-13T16:09:07.512Z,281
2015-10-13T16:09:21.247Z,281
2015-10-13T16:09:33.749Z,281
2015-10-13T16:09:46.436Z,281
2015-10-13T16:10:05.014Z,281
2015-10-13T16:10:17.170Z,281
2015-10-13T16:10:29.377Z,281
2015-10-13T16:10:41.470Z,281
2015-10-13T16:10:53.377Z,281
2015-10-13T16:11:05.752Z,264
2015-10-13T16:11:18.752Z,264
2015-10-13T16:11:30.833Z,264
2015-10-13T16:11:44.333Z,289
2015-10-13T16:11:57.036Z,289
2015-10-13T16:12:12.473Z,289
2015-10-13T16:12:24.773Z,272
2015-10-13T16:12:37.054Z,272
2015-10-13T16:12:49.289Z,272
2015-10-13T16:13:02.539Z,272
2015-10-13T16:13:15.054Z,272
2015-10-13T16:13:27.135Z,255
2015-10-13T16:13:39.431Z,255
2015-10-13T16:13:51.572Z,279
2015-10-13T16:14:03.931Z,279
2015-10-13T16:14:16.322Z,262
2015-10-13T16:14:28.543Z,262
2015-10-13T16:14:40.871Z,262
2015-10-13T16:14:53.527Z,262
2015-10-13T16:15:08.808Z,262
2015-10-13T16:15:21.496Z,262
2015-10-13T16:15:34.796Z,245
2015-10-13T16:15:51.436Z,245
2015-10-13T16:16:03.874Z,245
2015-10-13T16:16:16.936Z,270
2015-10-13T16:16:29.128Z,270
2015-10-13T16:16:41.815Z,270
2015-10-13T16:16:57.565Z,253
2015-10-13T16:17:10.956Z,253
2015-10-13T16:17:23.550Z,253
2015-10-13T16:17:36.395Z,253
2015-10-13T16:17:49.004Z,253
2015-10-13T16:18:05.770Z,236
2015-10-13T16:18:22.207Z,236
2015-10-13T16:18:34.570Z,236
2015-10-13T16:18:47.164Z,236
2015-10-13T16:18:59.289Z,236
2015-10-13T16:19:11.367Z,219
2015-10-13T16:19:23.602Z,236
2015-10-13T16:19:37.072Z,236
2015-10-13T16:19:49.901Z,261
2015-10-13T16:20:03.635Z,244
2015-10-13T16:20:16.151Z,244
2015-10-13T16:20:28.372Z,244
2015-10-13T16:20:41.325Z,244
2015-10-13T16:20:54.013Z,244
2015-10-13T16:21:06.575Z,244
2015-10-13T16:21:19.544Z,244
2015-10-13T16:21:32.235Z,244
2015-10-13T16:21:45.422Z,244
2015-10-13T16:21:58.188Z,244
2015-10-13T16:22:10.813Z,244
2015-10-13T16:22:23.016Z,244
2015-10-13T16:22:35.269Z,244
2015-10-13T16:22:47.378Z,244
2015-10-13T16:22:59.660Z,244
2015-10-13T16:23:12.488Z,244
2015-10-13T16:23:24.863Z,244
2015-10-13T16:23:37.568Z,244
2015-10-13T16:23:50.568Z,244
2015-10-13T16:24:03.052Z,244
2015-10-13T16:24:15.162Z,244
2015-10-13T16:24:27.883Z,244
2015-10-13T16:24:40.165Z,244
2015-10-13T16:24:52.946Z,244
2015-10-13T16:25:05.180Z,244
2015-10-13T16:25:18.055Z,244
2015-10-13T16:25:30.823Z,244
2015-10-13T16:25:43.213Z,244
2015-10-13T16:25:59.385Z,244
2015-10-13T16:26:11.620Z,244
2015-10-13T16:26:23.901Z,244
2015-10-13T16:26:36.202Z,244
2015-10-13T16:26:48.577Z,244
2015-10-13T16:27:01.327Z,244
2015-10-13T16:27:14.280Z,244
2015-10-13T16:27:28.048Z,244
2015-10-13T16:27:41.438Z,244
2015-10-13T16:27:54.141Z,244
2015-10-13T16:28:06.407Z,244
2015-10-13T16:28:19.157Z,244
2015-10-13T16:28:31.409Z,244
2015-10-13T16:28:43.721Z,244
2015-10-13T16:28:55.831Z,227
2015-10-13T16:29:08.159Z,227
2015-10-13T16:29:20.831Z,227
2015-10-13T16:29:33.068Z,227
2015-10-13T16:29:45.396Z,210
2015-10-13T16:29:57.787Z,235
2015-10-13T16:30:10.084Z,235
2015-10-13T16:30:22.115Z,235
2015-10-13T16:30:34.508Z,235
2015-10-13T16:30:46.680Z,235
2015-10-13T16:30:59.242Z,218
2015-10-13T16:31:11.586Z,218
2015-10-13T16:31:23.805Z,218
2015-10-13T16:31:36.058Z,218
2015-10-13T16:31:48.683Z,201
2015-10-13T16:32:01.464Z,218
2015-10-13T16:32:13.823Z,218
2015-10-13T16:32:26.573Z,201
2015-10-13T16:32:38.654Z,225
2015-10-13T16:32:51.232Z,225
2015-10-13T16:33:03.326Z,225
2015-10-13T16:33:15.420Z,225
2015-10-13T16:33:28.061Z,225
2015-10-13T16:33:40.423Z,225
2015-10-13T16:33:53.001Z,225
2015-10-13T16:34:05.157Z,225
2015-10-13T16:34:17.251Z,208
2015-10-13T16:34:29.769Z,225
2015-10-13T16:34:42.206Z,225
2015-10-13T16:34:55.534Z,208
2015-10-13T16:35:08.612Z,208
2015-10-13T16:35:20.847Z,208
2015-10-13T16:35:33.522Z,208
2015-10-13T16:35:45.506Z,208
2015-10-13T16:35:57.944Z,208
2015-10-13T16:36:10.506Z,208
2015-10-13T16:36:22.615Z,208
2015-10-13T16:36:42.337Z,208
2015-10-13T16:36:55.556Z,208
2015-10-13T16:37:15.337Z,208
2015-10-13T16:37:27.868Z,208
2015-10-13T16:37:39.981Z,208
2015-10-13T16:37:52.028Z,208
2015-10-13T16:38:04.887Z,191
2015-10-13T16:38:16.934Z,208
2015-10-13T16:38:30.059Z,208
2015-10-13T16:38:42.203Z,208
2015-10-13T16:38:55.562Z,208
2015-10-13T16:39:07.765Z,191
2015-10-13T16:39:20.156Z,208
2015-10-13T16:39:32.283Z,208
2015-10-13T16:39:44.236Z,208
2015-10-13T16:39:56.392Z,208
2015-10-13T16:40:08.908Z,231
2015-10-13T16:40:21.517Z,231
2015-10-13T16:40:33.676Z,215
2015-10-13T16:40:45.864Z,215
2015-10-13T16:40:58.083Z,215
2015-10-13T16:41:16.645Z,215
2015-10-13T16:41:28.817Z,215
2015-10-13T16:41:45.991Z,215
2015-10-13T16:41:58.538Z,215
2015-10-13T16:42:10.835Z,215
2015-10-13T16:42:23.381Z,215
2015-10-13T16:42:35.963Z,215
2015-10-13T16:42:49.228Z,215
2015-10-13T16:43:01.353Z,215
2015-10-13T16:43:13.431Z,215
2015-10-13T16:43:25.603Z,215
2015-10-13T16:43:37.778Z,215
2015-10-13T16:43:50.075Z,215
2015-10-13T16:44:03.403Z,215
2015-10-13T16:44:15.434Z,215
2015-10-13T16:44:34.811Z,199
2015-10-13T16:44:47.093Z,215
2015-10-13T16:44:59.499Z,199
2015-10-13T16:45:12.702Z,199
2015-10-13T16:45:25.014Z,199
2015-10-13T16:45:37.658Z,215
2015-10-13T16:45:49.783Z,215
2015-10-13T16:46:02.752Z,199
2015-10-13T16:46:15.017Z,199
2015-10-13T16:46:27.439Z,199
2015-10-13T16:46:39.692Z,199
2015-10-13T16:46:51.864Z,199
2015-10-13T16:47:08.161Z,199
2015-10-13T16:47:20.349Z,199
2015-10-13T16:47:32.427Z,199
2015-10-13T16:47:44.867Z,215
2015-10-13T16:47:56.992Z,215
2015-10-13T16:48:09.805Z,215
2015-10-13T16:48:22.539Z,215
2015-10-13T16:48:34.698Z,199
2015-10-13T16:48:47.355Z,199
2015-10-13T16:48:59.495Z,199
2015-10-13T16:49:11.620Z,199
2015-10-13T16:49:24.167Z,215
2015-10-13T16:49:36.122Z,199
2015-10-13T16:49:49.185Z,199
2015-10-13T16:50:02.200Z,199
2015-10-13T16:50:14.372Z,199
2015-10-13T16:50:26.544Z,199
2015-10-13T16:50:38.766Z,199
2015-10-13T16:50:51.860Z,199
2015-10-13T16:51:04.469Z,199
2015-10-13T16:51:17.110Z,199
2015-10-13T16:51:29.860Z,199
2015-10-13T16:51:42.347Z,199
2015-10-13T16:51:54.753Z,199
2015-10-13T16:52:07.222Z,199
2015-10-13T16:52:19.597Z,199
2015-10-13T16:52:31.675Z,199
2015-10-13T16:52:43.865Z,199
2015-10-13T16:52:55.974Z,199
2015-10-13T16:53:07.990Z,199
2015-10-13T16:53:21.896Z,199
2015-10-13T16:53:34.493Z,199
2015-10-13T16:53:49.618Z,199
2015-10-13T16:54:02.899Z,199
2015-10-13T16:54:16.149Z,199
2015-10-13T16:54:28.836Z,199
2015-10-13T16:54:42.230Z,199
2015-10-13T16:54:54.324Z,199
2015-10-13T16:55:07.011Z,199
2015-10-13T16:55:20.105Z,199
2015-10-13T16:55:32.636Z,199
2015-10-13T16:55:44.810Z,199
2015-10-13T16:55:57.466Z,199
2015-10-13T16:56:10.091Z,199
2015-10-13T16:56:22.123Z,199
2015-10-13T16:56:35.438Z,199
2015-10-13T16:56:47.797Z,199
2015-10-13T16:57:02.016Z,199
2015-10-13T16:57:14.047Z,199
2015-10-13T16:57:26.766Z,199
2015-10-13T16:57:38.879Z,199
2015-10-13T16:57:51.050Z,199
2015-10-13T16:58:03.160Z,199
2015-10-13T16:58:15.379Z,199
2015-10-13T16:58:27.488Z,199
2015-10-13T16:58:40.350Z,203
2015-10-13T16:58:52.569Z,203
2015-10-13T16:59:04.850Z,203
2015-10-13T16:59:20.022Z,182
2015-10-13T16:59:32.100Z,203
2015-10-13T16:59:44.415Z,203
2015-10-13T16:59:57.571Z,203
2015-10-13T17:00:10.180Z,203
2015-10-13T17:00:22.477Z,203
2015-10-13T17:00:34.712Z,203
2015-10-13T17:00:47.105Z,203
2015-10-13T17:01:00.090Z,182
2015-10-13T17:01:12.449Z,182
2015-10-13T17:01:25.543Z,203
2015-10-13T17:01:38.014Z,203
2015-10-13T17:01:50.935Z,203
2015-10-13T17:02:03.326Z,203
2015-10-13T17:02:16.107Z,203
2015-10-13T17:02:28.842Z,203
2015-10-13T17:02:41.673Z,203
2015-10-13T17:02:54.173Z,203
2015-10-13T17:03:06.845Z,203
2015-10-13T17:03:19.298Z,203
2015-10-13T17:03:32.782Z,203
2015-10-13T17:03:45.879Z,203
2015-10-13T17:03:59.066Z,203
2015-10-13T17:04:12.129Z,203
2015-10-13T17:04:24.504Z,203
2015-10-13T17:04:37.913Z,203
2015-10-13T17:04:50.726Z,203
2015-10-13T17:05:04.304Z,203
2015-10-13T17:05:16.632Z,203
2015-10-13T17:05:28.913Z,182
2015-10-13T17:05:41.321Z,203
2015-10-13T17:05:54.743Z,203
2015-10-13T17:06:08.103Z,203
2015-10-13T17:06:20.509Z,203
2015-10-13T17:06:33.306Z,203
2015-10-13T17:06:46.544Z,203
2015-10-13T17:06:58.950Z,203
2015-10-13T17:07:11.200Z,203
2015-10-13T17:07:26.263Z,219
2015-10-13T17:07:38.920Z,188
2015-10-13T17:07:51.936Z,188
2015-10-13T17:08:04.295Z,199
2015-10-13T17:08:17.936Z,2
2015-10-13T17:08:30.530Z,15
2015-10-13T17:08:43.236Z,0
2015-10-13T17:08:55.392Z,15
2015-10-13T17:09:07.533Z,0
2015-10-13T17:09:20.736Z,0
